Terminal Aerodrome Forecast
Issued by NWS Sioux Falls, SD

Home | Current Version | Previous Version | Graphics & Text | Print | Product List | Glossary On
Versions: 1 2 3 4 5 6 7 8 9 10 11 12 13 14 15 16 17 18 19 20 21 22 23 24 25 26 27 28 29 30 31 32 33 34 35 36 37 38 39 40 41 42 43
000
FTUS43 KFSD 301130
TAFSUX
TAF
KSUX 301130Z 3012/0112 07016G24KT 4SM RA OVC015
     FM301500 07018G26KT 3SM RA OVC007
     FM302000 06017G25KT 5SM -RA OVC009
     FM010100 05013G20KT P6SM -RA OVC010
     FM011100 01013G19KT P6SM -RA OVC010=

USA.gov is the U.S. government's official web portal to all federal, state and local government web resources and services.